Wendell H Ford Information

FAA: CPF - ICAO: KCPF

Wendell H Ford (Airport) Location

State Kentucky
County Perry
City Hazard
Wendell H Ford (Airport) is 10 miles northwest of Hazard, KY.
Latitude 37-23-14.5000N
Longitude 083-15-41.8000W
Elevation 1,256ft

Wendell H Ford METARs

METAR KCPF 300015Z AUTO 00000KT 10SM CLR 01/M08 A3008 RMK AO2
Altimeter 30.08"
Temperature 1.0°C (33.8°F)
Wind 0° at 0KT
Clouds Skies are clear.
Visibility 10.0mi
Time observed: 2021-11-30T00:15:00Z

Wendell H Ford (Airport) Details

Status Operational
Activation November 1983
Ownership Public
Usage Public
Chart CINCINNATI
ATC on-site No
Beacon schedule sunset-sunrise
Beacon color clear green

Wendell H Ford (Airport) Contacts

Owner HAZARD-PERRY COUNTY BOARD
Owner address P.O. BOX 420, HAZARD, KY 41702
Owner phone (606) 439-4518
Manager REX TUNGATE
Manager address 202-206 MILBY STREET, GREENSBURG, KY 42743
Manager phone 270-932-4211

Wendell H Ford Radio Frequencies

Wendell H Ford (Airport) Radio Frequencies

UNICOM 122.7
Common traffic advisory frequency (CTAF) 122.7